Terminal Aerodrome Forecast
Issued by NWS Boise, ID

Home | Current Version | Previous Version | Text Only | Print | Product List | Glossary On
Versions: 1 2 3 4 5 6 7 8 9 10 11 12 13 14 15 16 17
000
FTUS45 KBOI 191925 AAB
TAFBOI
TAF AMD
KBOI 191925Z 1919/2018 31012G20KT P6SM VCTS BKN060CB
     FM192100 31012G20KT P6SM VCSH BKN060
     FM192200 32008KT P6SM VCSH BKN050
     FM200200 VRB06KT P6SM BKN100
     FM200900 13010KT P6SM -SHRA OVC070
     FM201700 31013KT P6SM VCSH BKN060=

USA.gov is the U.S. government's official web portal to all federal, state and local government web resources and services.